createdAt,value
2023-05-18T00:00:45.314Z,2.55
2023-05-18T00:01:49.383Z,2.67
2023-05-18T00:02:52.353Z,2.70
2023-05-18T00:03:56.388Z,2.67
2023-05-18T00:05:02.495Z,2.80
2023-05-18T00:06:07.561Z,3.00
2023-05-18T00:07:11.941Z,2.75
2023-05-18T00:08:15.918Z,2.95
2023-05-18T00:09:19.046Z,2.55
2023-05-18T00:10:23.198Z,2.60
2023-05-18T00:11:26.400Z,2.90
2023-05-18T00:12:30.635Z,2.80
2023-05-18T00:13:34.071Z,3.22
2023-05-18T00:14:38.511Z,2.90
2023-05-18T00:15:41.463Z,2.72
2023-05-18T00:16:45.442Z,2.60
2023-05-18T00:17:50.859Z,2.97
2023-05-18T00:18:54.965Z,2.85
2023-05-18T00:19:58.895Z,3.00
2023-05-18T00:21:02.828Z,2.80
2023-05-18T00:22:08.089Z,2.90
2023-05-18T00:23:16.787Z,3.00
2023-05-18T00:24:20.188Z,2.78
2023-05-18T00:25:24.353Z,2.90
2023-05-18T00:26:27.260Z,2.70
2023-05-18T00:27:31.750Z,3.15
2023-05-18T00:28:34.594Z,2.88
2023-05-18T00:29:38.342Z,3.47
2023-05-18T00:30:41.278Z,2.97
2023-05-18T00:31:46.140Z,2.83
2023-05-18T00:32:49.095Z,2.70
2023-05-18T00:33:53.204Z,3.38
2023-05-18T00:34:56.382Z,2.85
2023-05-18T00:36:00.312Z,2.30
2023-05-18T00:37:03.358Z,2.92
2023-05-18T00:38:07.368Z,2.80
2023-05-18T00:39:11.685Z,2.40
2023-05-18T00:40:16.800Z,2.90
2023-05-18T00:41:19.771Z,3.00
2023-05-18T00:42:23.566Z,2.97
2023-05-18T00:43:26.732Z,2.90
2023-05-18T00:44:30.466Z,2.72
2023-05-18T00:45:33.684Z,2.90
2023-05-18T00:46:37.913Z,3.10
2023-05-18T00:47:40.987Z,2.53
2023-05-18T00:48:45.677Z,2.60
2023-05-18T00:49:48.855Z,2.90
2023-05-18T00:50:54.636Z,2.90
2023-05-18T00:51:57.654Z,2.80
2023-05-18T00:53:02.866Z,2.75
2023-05-18T00:54:06.901Z,3.00
2023-05-18T00:55:14.501Z,3.10
2023-05-18T00:56:17.620Z,3.53
2023-05-18T00:57:21.711Z,2.40
2023-05-18T00:58:24.999Z,2.92
2023-05-18T00:59:29.658Z,2.88
2023-05-18T01:00:34.234Z,2.53
2023-05-18T01:01:44.015Z,2.90
2023-05-18T01:02:47.765Z,2.72
2023-05-18T01:03:56.714Z,3.05
2023-05-18T01:05:00.939Z,2.83
2023-05-18T01:06:06.003Z,2.97
2023-05-18T01:07:09.540Z,3.20
2023-05-18T01:08:13.424Z,3.15
2023-05-18T01:09:16.589Z,2.40
2023-05-18T01:10:22.522Z,2.75
2023-05-18T01:11:33.600Z,2.75
2023-05-18T01:12:45.161Z,3.08
2023-05-18T01:13:56.606Z,2.35
2023-05-18T01:15:09.531Z,2.80
2023-05-18T01:16:20.255Z,2.63
2023-05-18T01:17:33.992Z,3.15
2023-05-18T01:18:47.802Z,2.92
2023-05-18T01:20:29.512Z,3.00
2023-05-18T01:21:46.607Z,2.92
2023-05-18T01:23:10.421Z,2.50
2023-05-18T01:24:27.525Z,3.35
2023-05-18T01:25:48.566Z,2.70
2023-05-18T01:26:59.793Z,2.78
2023-05-18T01:28:06.826Z,2.83
2023-05-18T01:29:11.969Z,2.28
2023-05-18T01:30:17.228Z,2.92
2023-05-18T01:31:23.091Z,2.50
2023-05-18T01:32:26.072Z,3.00
2023-05-18T01:33:30.173Z,2.72
2023-05-18T01:34:33.171Z,2.95
2023-05-18T01:35:37.797Z,3.03
2023-05-18T01:36:40.549Z,2.75
2023-05-18T01:37:44.777Z,2.50
2023-05-18T01:38:48.634Z,3.00
2023-05-18T01:39:52.701Z,3.00
2023-05-18T01:41:03.936Z,3.08
2023-05-18T01:42:16.795Z,3.15
2023-05-18T01:43:24.059Z,3.10
2023-05-18T01:44:35.786Z,3.00
2023-05-18T01:45:42.512Z,2.42
2023-05-18T01:46:58.544Z,3.17
2023-05-18T01:48:04.784Z,3.25
2023-05-18T01:49:15.773Z,2.90
2023-05-18T01:50:21.577Z,2.50
2023-05-18T01:51:31.578Z,2.90
2023-05-18T01:53:46.829Z,2.60
2023-05-18T01:54:53.315Z,2.92
2023-05-18T01:55:57.993Z,2.85
2023-05-18T01:57:02.634Z,3.00
2023-05-18T01:58:09.828Z,2.55
2023-05-18T01:59:13.535Z,3.08
2023-05-18T02:01:24.237Z,3.47
2023-05-18T02:02:28.680Z,3.25
2023-05-18T02:03:32.815Z,2.75
2023-05-18T02:04:37.060Z,2.47
2023-05-18T02:05:40.053Z,2.50
2023-05-18T02:06:44.313Z,2.92
2023-05-18T02:07:47.720Z,2.90
2023-05-18T02:08:52.957Z,2.50
2023-05-18T02:09:56.675Z,2.90
2023-05-18T02:11:01.156Z,2.70
2023-05-18T02:12:04.288Z,2.80
2023-05-18T02:13:10.366Z,2.88
2023-05-18T02:14:13.355Z,2.22
2023-05-18T02:15:17.472Z,2.67
2023-05-18T02:16:20.497Z,2.03
2023-05-18T02:17:26.357Z,2.90
2023-05-18T02:18:29.273Z,2.70
2023-05-18T02:19:33.349Z,3.00
2023-05-18T02:20:38.278Z,2.63
2023-05-18T02:21:43.879Z,2.83
2023-05-18T02:22:46.960Z,2.75
2023-05-18T02:23:51.130Z,3.35
2023-05-18T02:24:54.275Z,3.00
2023-05-18T02:25:58.269Z,2.83
2023-05-18T02:27:01.704Z,2.83
2023-05-18T02:28:06.118Z,3.08
2023-05-18T02:29:12.394Z,3.42
2023-05-18T02:30:16.874Z,2.65
2023-05-18T02:31:20.766Z,3.03
2023-05-18T02:32:24.737Z,2.75
2023-05-18T02:33:27.663Z,2.80
2023-05-18T02:34:32.589Z,2.47
2023-05-18T02:35:36.528Z,2.70
2023-05-18T02:36:42.923Z,2.88
2023-05-18T02:37:45.913Z,2.70
2023-05-18T02:38:50.395Z,2.95
2023-05-18T02:39:53.381Z,3.40
2023-05-18T02:40:57.256Z,3.13
2023-05-18T02:42:00.271Z,2.83
2023-05-18T02:43:04.631Z,2.80
2023-05-18T02:44:07.584Z,2.80
2023-05-18T02:45:13.672Z,2.75
2023-05-18T02:46:19.430Z,2.90
2023-05-18T02:47:23.346Z,2.95
2023-05-18T02:48:26.981Z,3.08
2023-05-18T02:49:31.063Z,2.60
2023-05-18T02:50:34.176Z,3.30
2023-05-18T02:51:38.122Z,3.28
2023-05-18T02:52:41.900Z,2.80
2023-05-18T02:53:46.129Z,3.40
2023-05-18T02:54:51.288Z,2.70
2023-05-18T02:56:03.562Z,2.75
2023-05-18T02:57:25.979Z,3.25
2023-05-18T02:58:37.134Z,2.38
2023-05-18T02:59:47.894Z,2.53
2023-05-18T03:00:55.412Z,3.78
2023-05-18T03:01:59.813Z,2.53
2023-05-18T03:03:03.321Z,2.92
2023-05-18T03:04:07.309Z,2.70
2023-05-18T03:05:13.579Z,2.80
2023-05-18T03:06:17.631Z,2.72
2023-05-18T03:07:21.323Z,4.40
2023-05-18T03:08:27.412Z,3.40
2023-05-18T03:09:30.483Z,3.10
2023-05-18T03:10:34.798Z,2.85
2023-05-18T03:11:38.079Z,3.10
2023-05-18T03:12:42.285Z,3.08
2023-05-18T03:13:45.113Z,2.65
2023-05-18T03:14:49.160Z,2.70
2023-05-18T03:15:53.811Z,3.53
2023-05-18T03:16:58.185Z,3.60
2023-05-18T03:18:01.431Z,3.47
2023-05-18T03:19:06.287Z,2.50
2023-05-18T03:20:14.876Z,2.63
2023-05-18T03:21:20.351Z,2.97
2023-05-18T03:22:23.373Z,2.85
2023-05-18T03:23:27.449Z,2.95
2023-05-18T03:24:30.705Z,2.60
2023-05-18T03:25:37.598Z,3.15
2023-05-18T03:26:44.751Z,2.83
2023-05-18T03:27:49.197Z,3.20
2023-05-18T03:28:52.758Z,2.63
2023-05-18T03:29:57.634Z,2.83
2023-05-18T03:31:02.065Z,3.53
2023-05-18T03:32:07.752Z,2.80
2023-05-18T03:33:10.823Z,2.58
2023-05-18T03:34:14.955Z,2.80
2023-05-18T03:35:18.308Z,2.40
2023-05-18T03:36:23.409Z,2.75
2023-05-18T03:37:26.317Z,3.13
2023-05-18T03:38:30.711Z,3.85
2023-05-18T03:40:42.893Z,3.35
2023-05-18T03:41:46.316Z,2.72
2023-05-18T03:42:50.420Z,2.80
2023-05-18T03:43:53.418Z,2.50
2023-05-18T03:44:57.190Z,2.55
2023-05-18T03:46:02.343Z,2.75
2023-05-18T03:47:06.878Z,2.58
2023-05-18T03:48:09.925Z,2.70
2023-05-18T03:49:13.989Z,2.33
2023-05-18T03:50:18.851Z,2.47
2023-05-18T03:51:22.998Z,2.30
2023-05-18T03:52:26.426Z,2.63
2023-05-18T03:53:30.383Z,2.78
2023-05-18T03:54:33.352Z,2.53
2023-05-18T03:55:37.241Z,2.60
2023-05-18T03:56:40.247Z,2.42
2023-05-18T03:57:44.073Z,2.55
2023-05-18T03:58:48.085Z,2.72
2023-05-18T03:59:52.098Z,2.40
2023-05-18T04:00:55.355Z,2.25
2023-05-18T04:02:01.036Z,2.40
2023-05-18T04:03:04.974Z,2.90
2023-05-18T04:04:09.248Z,2.70
2023-05-18T04:05:12.370Z,2.50
2023-05-18T04:06:16.281Z,2.58
2023-05-18T04:07:22.239Z,2.55
2023-05-18T04:08:26.449Z,2.67
2023-05-18T04:09:29.614Z,2.65
2023-05-18T04:10:33.821Z,2.30
2023-05-18T04:11:36.887Z,2.65
2023-05-18T04:12:42.143Z,2.40
2023-05-18T04:13:46.261Z,2.67
2023-05-18T04:14:51.545Z,2.50
2023-05-18T04:15:54.478Z,3.17
2023-05-18T04:17:05.121Z,2.42
2023-05-18T04:18:08.718Z,2.40
2023-05-18T04:19:13.390Z,2.78
2023-05-18T04:20:16.493Z,2.35
2023-05-18T04:21:20.813Z,2.42
2023-05-18T04:22:23.662Z,2.42
2023-05-18T04:23:28.869Z,2.28
2023-05-18T04:24:32.951Z,2.85
2023-05-18T04:25:36.948Z,2.60
2023-05-18T04:26:41.368Z,3.17
2023-05-18T04:27:47.375Z,2.38
2023-05-18T04:28:52.148Z,2.30
2023-05-18T04:29:56.021Z,2.53
2023-05-18T04:30:59.193Z,2.53
2023-05-18T04:32:04.470Z,2.60
2023-05-18T04:33:07.551Z,3.47
2023-05-18T04:34:13.490Z,3.00
2023-05-18T04:35:17.198Z,2.28
2023-05-18T04:36:21.634Z,2.45
2023-05-18T04:37:25.822Z,2.35
2023-05-18T04:38:29.660Z,2.58
2023-05-18T04:39:32.848Z,2.47
2023-05-18T04:40:38.315Z,2.50
2023-05-18T04:41:42.525Z,2.30
2023-05-18T04:42:48.733Z,2.60
2023-05-18T04:44:09.961Z,2.53
2023-05-18T04:45:15.947Z,2.20
2023-05-18T04:46:20.022Z,2.10
2023-05-18T04:47:25.762Z,2.40
2023-05-18T04:48:29.697Z,2.78
2023-05-18T04:49:33.534Z,2.45
2023-05-18T04:50:37.372Z,2.70
2023-05-18T04:51:42.330Z,2.20
2023-05-18T04:52:49.172Z,2.35
2023-05-18T04:53:55.984Z,2.28
2023-05-18T04:54:58.879Z,2.20
2023-05-18T04:56:03.747Z,2.53
2023-05-18T04:57:06.919Z,2.75
2023-05-18T04:58:11.106Z,2.33
2023-05-18T04:59:14.421Z,3.20
2023-05-18T05:00:19.677Z,2.80
2023-05-18T05:01:22.866Z,2.55
2023-05-18T05:02:28.386Z,2.30
2023-05-18T05:03:31.882Z,2.20
2023-05-18T05:04:35.904Z,2.10
2023-05-18T05:05:38.676Z,3.15
2023-05-18T05:06:43.971Z,2.63
2023-05-18T05:07:46.854Z,2.42
2023-05-18T05:08:50.798Z,2.40
2023-05-18T05:09:53.756Z,2.50
2023-05-18T05:10:57.647Z,2.33
2023-05-18T05:12:00.612Z,2.35
2023-05-18T05:13:04.625Z,2.25
2023-05-18T05:14:07.856Z,3.33
2023-05-18T05:15:12.032Z,2.38
2023-05-18T05:16:15.481Z,2.10
2023-05-18T05:17:19.323Z,2.15
2023-05-18T05:18:24.911Z,2.60
2023-05-18T05:19:27.895Z,2.03
2023-05-18T05:20:31.810Z,2.10
2023-05-18T05:21:34.544Z,1.90
2023-05-18T05:22:39.588Z,2.00
2023-05-18T05:23:45.762Z,2.33
2023-05-18T05:24:50.494Z,1.90
2023-05-18T05:25:53.402Z,2.25
2023-05-18T05:26:58.122Z,2.10
2023-05-18T05:28:01.168Z,2.13
2023-05-18T05:29:06.273Z,2.13
2023-05-18T05:30:09.935Z,2.00
2023-05-18T05:31:15.367Z,2.80
2023-05-18T05:32:19.692Z,2.33
2023-05-18T05:34:28.718Z,2.30
2023-05-18T05:35:33.798Z,2.45
2023-05-18T05:36:36.920Z,2.20
2023-05-18T05:37:41.226Z,2.42
2023-05-18T05:38:44.632Z,1.88
2023-05-18T05:39:49.141Z,2.10
2023-05-18T05:40:53.747Z,2.58
2023-05-18T05:41:57.773Z,2.08
2023-05-18T05:43:00.644Z,2.83
2023-05-18T05:44:04.586Z,2.10
2023-05-18T05:45:08.735Z,2.95
2023-05-18T05:46:20.162Z,2.60
2023-05-18T05:47:23.189Z,2.50
2023-05-18T05:48:28.814Z,3.30
2023-05-18T05:49:31.731Z,2.92
2023-05-18T05:50:35.844Z,2.15
2023-05-18T05:51:40.795Z,1.90
2023-05-18T05:52:44.759Z,2.03
2023-05-18T05:53:49.553Z,2.33
2023-05-18T05:54:54.835Z,2.60
2023-05-18T05:55:58.702Z,3.13
2023-05-18T05:57:02.063Z,2.95
2023-05-18T05:58:06.915Z,2.80
2023-05-18T05:59:09.783Z,2.40
2023-05-18T06:00:15.124Z,2.85
2023-05-18T06:01:24.530Z,4.07
2023-05-18T06:02:28.767Z,2.40
2023-05-18T06:03:35.782Z,2.58
2023-05-18T06:04:43.681Z,2.13
2023-05-18T06:05:46.657Z,2.15
2023-05-18T06:06:52.095Z,1.80
2023-05-18T06:07:55.978Z,2.22
2023-05-18T06:08:59.864Z,2.10
2023-05-18T06:10:03.046Z,2.38
2023-05-18T06:12:12.094Z,2.50
2023-05-18T06:13:16.634Z,2.10
2023-05-18T06:15:35.047Z,2.30
2023-05-18T06:16:39.447Z,2.15
2023-05-18T06:17:44.279Z,5.20
2023-05-18T06:18:50.920Z,2.28
2023-05-18T06:19:55.097Z,2.72
2023-05-18T06:20:59.524Z,2.30
2023-05-18T06:22:02.678Z,2.20
2023-05-18T06:23:12.509Z,2.30
2023-05-18T06:24:27.859Z,3.55
2023-05-18T06:26:01.394Z,3.50
2023-05-18T06:27:13.114Z,2.25
2023-05-18T06:28:37.316Z,4.57
2023-05-18T06:30:17.353Z,2.28
2023-05-18T06:31:45.036Z,3.70
2023-05-18T06:32:55.093Z,2.40
2023-05-18T06:33:59.439Z,2.50
2023-05-18T06:35:04.067Z,2.90
2023-05-18T06:36:08.338Z,2.90
2023-05-18T06:37:12.078Z,3.90
2023-05-18T06:38:15.049Z,2.30
2023-05-18T06:39:19.048Z,2.17
2023-05-18T06:40:21.920Z,2.58
2023-05-18T06:41:26.005Z,2.50
2023-05-18T06:42:29.204Z,2.00
2023-05-18T06:43:52.059Z,2.40
2023-05-18T06:44:58.052Z,2.33
2023-05-18T06:46:23.253Z,1.95
2023-05-18T06:47:33.038Z,2.13
2023-05-18T06:48:38.952Z,2.00
2023-05-18T06:49:43.868Z,3.40
2023-05-18T06:50:48.406Z,2.90
2023-05-18T06:51:51.637Z,3.95
2023-05-18T06:52:55.583Z,2.53
2023-05-18T06:53:58.399Z,2.60
2023-05-18T06:56:06.360Z,2.30
2023-05-18T06:57:10.324Z,2.15
2023-05-18T06:58:14.055Z,2.10
2023-05-18T06:59:18.129Z,9.32
2023-05-18T07:00:22.385Z,1.98
2023-05-18T07:01:25.747Z,2.30
2023-05-18T07:02:32.178Z,2.30
2023-05-18T07:03:35.902Z,2.38
2023-05-18T07:04:39.977Z,2.05
2023-05-18T07:05:45.277Z,1.90
2023-05-18T07:06:48.112Z,2.08
2023-05-18T07:07:52.162Z,3.05
2023-05-18T07:08:55.112Z,2.33
2023-05-18T07:09:59.283Z,2.65
2023-05-18T07:11:02.763Z,2.28
2023-05-18T07:13:09.154Z,2.38
2023-05-18T07:14:13.441Z,2.40
2023-05-18T07:15:17.809Z,2.40
2023-05-18T07:16:21.748Z,2.38
2023-05-18T07:17:25.697Z,2.30
2023-05-18T07:18:28.623Z,2.63
2023-05-18T07:19:32.619Z,2.22
2023-05-18T07:20:35.635Z,13.07
2023-05-18T07:21:40.960Z,2.30
2023-05-18T07:22:43.969Z,2.67
2023-05-18T07:23:47.965Z,2.03
2023-05-18T07:24:50.946Z,2.10
2023-05-18T07:25:54.762Z,1.88
2023-05-18T07:27:00.771Z,1.98
2023-05-18T07:28:03.897Z,2.40
2023-05-18T07:29:07.832Z,2.22
2023-05-18T07:30:12.616Z,2.08
2023-05-18T07:31:16.739Z,2.03
2023-05-18T07:32:20.559Z,2.20
2023-05-18T07:33:23.516Z,3.28
2023-05-18T07:34:27.586Z,2.00
2023-05-18T07:35:31.323Z,2.00
2023-05-18T07:36:35.596Z,2.75
2023-05-18T07:37:41.104Z,2.28
2023-05-18T07:38:45.616Z,2.05
2023-05-18T07:39:49.707Z,2.25
2023-05-18T07:40:52.688Z,2.30
2023-05-18T07:41:56.762Z,2.20
2023-05-18T07:42:59.597Z,1.88
2023-05-18T07:44:03.511Z,2.20
2023-05-18T07:45:07.932Z,2.03
2023-05-18T07:46:12.136Z,1.90
2023-05-18T07:47:14.936Z,2.08
2023-05-18T07:48:19.014Z,2.55
2023-05-18T07:49:23.610Z,2.17
2023-05-18T07:50:27.042Z,2.35
2023-05-18T07:51:31.900Z,2.38
2023-05-18T07:52:34.753Z,2.03
2023-05-18T07:53:41.152Z,2.13
2023-05-18T07:54:43.944Z,4.55
2023-05-18T07:55:48.044Z,4.20
2023-05-18T07:56:51.960Z,2.50
2023-05-18T07:57:54.771Z,2.17
2023-05-18T07:58:58.771Z,2.20
2023-05-18T08:00:02.755Z,2.28
2023-05-18T08:01:17.719Z,2.05
2023-05-18T08:02:21.724Z,1.98
2023-05-18T08:03:25.955Z,1.88
2023-05-18T08:04:29.254Z,3.70
2023-05-18T08:06:36.881Z,1.90
2023-05-18T08:07:41.135Z,2.63
2023-05-18T08:08:45.720Z,2.47
2023-05-18T08:09:49.728Z,2.08
2023-05-18T08:10:52.859Z,3.20
2023-05-18T08:11:57.040Z,4.03
2023-05-18T08:13:01.063Z,2.42
2023-05-18T08:14:05.648Z,1.75
2023-05-18T08:15:09.804Z,2.90
2023-05-18T08:16:13.730Z,2.97
2023-05-18T08:17:18.767Z,2.40
2023-05-18T08:18:22.818Z,3.08
2023-05-18T08:19:27.007Z,2.25
2023-05-18T08:20:30.422Z,2.30
2023-05-18T08:22:38.572Z,3.00
2023-05-18T08:23:42.567Z,2.38
2023-05-18T08:24:47.251Z,2.30
2023-05-18T08:25:51.144Z,2.35
2023-05-18T08:26:55.049Z,2.13
2023-05-18T08:27:57.975Z,2.10
2023-05-18T08:29:02.103Z,2.10
2023-05-18T08:30:05.647Z,2.10
2023-05-18T08:31:09.512Z,2.10
2023-05-18T08:32:12.485Z,2.38
2023-05-18T08:33:16.444Z,1.92
2023-05-18T08:34:19.461Z,2.10
2023-05-18T08:35:23.332Z,2.42
2023-05-18T08:36:26.241Z,1.80
2023-05-18T08:37:31.463Z,2.03
2023-05-18T08:38:34.282Z,2.00
2023-05-18T08:39:38.544Z,2.00
2023-05-18T08:40:47.378Z,2.03
2023-05-18T08:41:57.120Z,2.30
2023-05-18T08:43:07.579Z,2.03
2023-05-18T08:44:16.404Z,1.80
2023-05-18T08:45:32.099Z,1.98
2023-05-18T08:46:37.156Z,2.00
2023-05-18T08:47:42.500Z,2.47
2023-05-18T08:48:47.415Z,2.05
2023-05-18T08:49:54.458Z,2.25
2023-05-18T08:50:59.324Z,2.10
2023-05-18T08:52:06.355Z,1.95
2023-05-18T08:53:11.232Z,2.05
2023-05-18T08:54:21.209Z,2.22
2023-05-18T08:55:24.378Z,2.05
2023-05-18T08:56:33.248Z,2.20
2023-05-18T08:57:37.518Z,2.00
2023-05-18T08:58:45.706Z,2.33
2023-05-18T08:59:53.758Z,2.33
2023-05-18T09:00:58.848Z,1.92
2023-05-18T09:02:01.906Z,2.08
2023-05-18T09:04:10.899Z,1.80
2023-05-18T09:05:16.955Z,2.00
2023-05-18T09:06:22.291Z,1.90
2023-05-18T09:07:29.673Z,2.25
2023-05-18T09:08:33.344Z,2.28
2023-05-18T09:09:38.061Z,2.20
2023-05-18T09:10:41.933Z,2.17
2023-05-18T09:11:49.374Z,1.90
2023-05-18T09:12:57.172Z,2.20
2023-05-18T09:14:00.939Z,1.98
2023-05-18T09:15:05.185Z,1.80
2023-05-18T09:16:10.872Z,2.08
2023-05-18T09:17:13.671Z,2.50
2023-05-18T09:18:17.812Z,1.90
2023-05-18T09:19:20.914Z,1.95
2023-05-18T09:20:27.796Z,3.00
2023-05-18T09:21:33.815Z,2.88
2023-05-18T09:22:36.959Z,2.42
2023-05-18T09:23:41.178Z,2.40
2023-05-18T09:24:45.373Z,2.10
2023-05-18T09:25:50.102Z,2.05
2023-05-18T09:26:55.987Z,2.00
2023-05-18T09:27:58.886Z,2.10
2023-05-18T09:29:02.984Z,2.20
2023-05-18T09:30:12.579Z,2.45
2023-05-18T09:32:23.856Z,2.95
2023-05-18T09:33:26.834Z,2.90
2023-05-18T09:34:41.380Z,2.75
2023-05-18T09:35:46.463Z,2.90
2023-05-18T09:36:53.104Z,2.90
2023-05-18T09:37:56.031Z,2.70
2023-05-18T09:38:59.925Z,2.53
2023-05-18T09:40:05.661Z,2.55
2023-05-18T09:41:12.761Z,2.42
2023-05-18T09:42:18.197Z,2.40
2023-05-18T09:43:21.235Z,2.63
2023-05-18T09:44:33.587Z,2.67
2023-05-18T09:45:43.925Z,3.00
2023-05-18T09:46:47.961Z,2.78
2023-05-18T09:47:51.616Z,3.60
2023-05-18T09:48:56.712Z,3.45
2023-05-18T09:50:00.503Z,3.17
2023-05-18T09:51:05.056Z,3.20
2023-05-18T09:52:12.685Z,3.13
2023-05-18T09:53:16.972Z,4.22
2023-05-18T09:54:24.209Z,5.00
2023-05-18T09:55:28.952Z,4.25
2023-05-18T09:56:35.672Z,4.13
2023-05-18T09:57:46.113Z,4.95
2023-05-18T09:58:49.079Z,3.80
2023-05-18T09:59:57.668Z,4.45
2023-05-18T10:01:02.094Z,4.50
2023-05-18T10:02:09.176Z,4.60
2023-05-18T10:03:20.760Z,4.53
2023-05-18T10:04:24.942Z,4.65
2023-05-18T10:05:35.482Z,4.60
2023-05-18T10:06:39.085Z,4.53
2023-05-18T10:07:45.898Z,4.43
2023-05-18T10:08:49.192Z,4.60
2023-05-18T10:10:03.809Z,5.03
2023-05-18T10:11:09.481Z,4.50
2023-05-18T10:12:13.486Z,4.10
2023-05-18T10:13:21.084Z,4.82
2023-05-18T10:14:25.439Z,4.13
2023-05-18T10:15:29.869Z,4.30
2023-05-18T10:16:34.291Z,5.15
2023-05-18T10:17:39.504Z,4.03
2023-05-18T10:18:43.921Z,4.53
2023-05-18T10:19:49.243Z,4.15
2023-05-18T10:20:54.640Z,5.28
2023-05-18T10:21:57.764Z,4.85
2023-05-18T10:23:07.058Z,5.20
2023-05-18T10:24:17.634Z,5.88
2023-05-18T10:25:22.687Z,5.07
2023-05-18T10:26:30.762Z,5.28
2023-05-18T10:27:36.640Z,6.03
2023-05-18T10:28:44.432Z,4.90
2023-05-18T10:29:47.318Z,5.07
2023-05-18T10:30:53.013Z,5.00
2023-05-18T10:32:05.988Z,4.93
2023-05-18T10:33:20.576Z,5.13
2023-05-18T10:34:29.228Z,5.80
2023-05-18T10:35:34.159Z,5.40
2023-05-18T10:36:39.512Z,5.30
2023-05-18T10:37:47.529Z,4.25
2023-05-18T10:38:52.246Z,4.97
2023-05-18T10:39:56.658Z,5.57
2023-05-18T10:41:02.213Z,5.28
2023-05-18T10:42:08.848Z,5.38
2023-05-18T10:43:15.702Z,5.10
2023-05-18T10:44:24.629Z,5.45
2023-05-18T10:45:28.781Z,5.03
2023-05-18T10:46:33.736Z,5.57
2023-05-18T10:47:39.811Z,5.50
2023-05-18T10:48:48.058Z,5.13
2023-05-18T10:49:51.896Z,5.32
2023-05-18T10:50:59.520Z,5.95
2023-05-18T10:52:04.189Z,4.97
2023-05-18T10:53:08.749Z,5.18
2023-05-18T10:54:14.813Z,4.93
2023-05-18T10:55:18.203Z,5.10
2023-05-18T10:56:22.606Z,5.53
2023-05-18T10:57:31.342Z,5.90
2023-05-18T10:58:38.320Z,5.03
2023-05-18T10:59:46.733Z,4.97
2023-05-18T11:00:55.529Z,5.32
2023-05-18T11:01:59.609Z,5.30
2023-05-18T11:03:04.873Z,5.82
2023-05-18T11:04:07.927Z,5.20
2023-05-18T11:05:13.566Z,6.30
2023-05-18T11:06:26.128Z,5.22
2023-05-18T11:07:30.846Z,5.53
2023-05-18T11:08:35.381Z,4.95
2023-05-18T11:09:43.158Z,5.63
2023-05-18T11:10:48.440Z,5.47
2023-05-18T11:11:53.067Z,5.47
2023-05-18T11:12:56.888Z,5.47
2023-05-18T11:14:02.106Z,5.68
2023-05-18T11:15:09.039Z,5.63
2023-05-18T11:16:13.153Z,5.95
2023-05-18T11:17:19.300Z,5.65
2023-05-18T11:18:35.566Z,6.03
2023-05-18T11:19:39.364Z,5.63
2023-05-18T11:20:42.511Z,5.60
2023-05-18T11:21:54.457Z,6.93
2023-05-18T11:23:04.795Z,5.22
2023-05-18T11:24:25.006Z,5.65
2023-05-18T11:25:43.811Z,5.95
2023-05-18T11:26:49.877Z,5.10
2023-05-18T11:27:54.550Z,5.07
2023-05-18T11:28:59.278Z,5.57
2023-05-18T11:30:14.925Z,5.65
2023-05-18T11:31:21.340Z,4.78
2023-05-18T11:32:30.404Z,5.07
2023-05-18T11:33:36.790Z,4.93
2023-05-18T11:34:46.836Z,5.40
2023-05-18T11:36:01.906Z,5.32
2023-05-18T11:37:07.053Z,5.38
2023-05-18T11:38:12.724Z,5.63
2023-05-18T11:39:26.326Z,7.88
2023-05-18T11:40:49.779Z,5.60
2023-05-18T11:42:01.720Z,5.38
2023-05-18T11:43:06.370Z,5.63
2023-05-18T11:44:17.226Z,4.78
2023-05-18T11:45:24.551Z,4.95
2023-05-18T11:46:29.244Z,5.20
2023-05-18T11:47:33.135Z,5.40
2023-05-18T11:48:36.116Z,4.82
2023-05-18T11:49:45.596Z,5.50
2023-05-18T11:50:48.430Z,5.82
2023-05-18T11:52:02.648Z,5.25
2023-05-18T11:53:06.699Z,5.55
2023-05-18T11:54:09.743Z,4.80
2023-05-18T11:55:18.101Z,5.00
2023-05-18T11:56:21.696Z,5.20
2023-05-18T11:57:27.160Z,5.13
2023-05-18T11:58:31.984Z,5.47
2023-05-18T11:59:39.923Z,5.78
2023-05-18T12:00:43.808Z,6.03
2023-05-18T12:01:48.186Z,5.28
2023-05-18T12:02:53.047Z,7.03
2023-05-18T12:03:56.330Z,5.32
2023-05-18T12:05:01.498Z,5.75
2023-05-18T12:06:06.948Z,5.65
2023-05-18T12:07:12.217Z,5.07
2023-05-18T12:08:18.109Z,6.18
2023-05-18T12:09:22.184Z,5.65
2023-05-18T12:10:26.497Z,5.30
2023-05-18T12:11:29.907Z,5.15
2023-05-18T12:12:35.232Z,5.05
2023-05-18T12:13:39.244Z,4.90
2023-05-18T12:14:44.783Z,5.50
2023-05-18T12:15:48.340Z,5.57
2023-05-18T12:18:00.582Z,4.63
2023-05-18T12:19:05.388Z,5.13
2023-05-18T12:20:12.148Z,5.72
2023-05-18T12:21:17.303Z,5.88
2023-05-18T12:22:21.514Z,5.45
2023-05-18T12:23:37.300Z,5.88
2023-05-18T12:25:43.786Z,5.75
2023-05-18T12:26:48.721Z,7.43
2023-05-18T12:27:53.741Z,6.57
2023-05-18T12:28:57.825Z,6.45
2023-05-18T12:30:01.556Z,6.22
2023-05-18T12:31:07.610Z,5.30
2023-05-18T12:32:14.878Z,6.25
2023-05-18T12:33:17.578Z,5.65
2023-05-18T12:34:21.418Z,5.97
2023-05-18T12:35:24.596Z,5.63
2023-05-18T12:36:28.364Z,6.57
2023-05-18T12:37:41.724Z,5.20
2023-05-18T12:38:50.195Z,5.70
2023-05-18T12:39:54.824Z,6.03
2023-05-18T12:40:57.445Z,5.60
2023-05-18T12:42:18.826Z,6.07
2023-05-18T12:43:21.717Z,6.30
2023-05-18T12:44:25.475Z,6.63
2023-05-18T12:45:34.697Z,6.50
2023-05-18T12:46:37.861Z,5.93
2023-05-18T12:47:43.596Z,5.60
2023-05-18T12:48:47.472Z,5.43
2023-05-18T12:49:51.624Z,5.47
2023-05-18T12:50:55.755Z,5.65
2023-05-18T12:51:59.508Z,8.60
2023-05-18T12:53:03.302Z,5.53
2023-05-18T12:54:09.068Z,7.15
2023-05-18T12:55:22.110Z,6.10
2023-05-18T12:56:25.667Z,5.40
2023-05-18T12:57:31.281Z,5.38
2023-05-18T12:58:34.268Z,6.45
2023-05-18T12:59:48.870Z,5.30
2023-05-18T13:00:52.790Z,5.82
2023-05-18T13:01:59.835Z,5.22
2023-05-18T13:03:14.738Z,5.28
2023-05-18T13:04:19.688Z,5.60
2023-05-18T13:05:25.021Z,6.10
2023-05-18T13:06:28.844Z,5.85
2023-05-18T13:07:32.106Z,6.50
2023-05-18T13:08:37.652Z,7.90
2023-05-18T13:09:46.180Z,5.25
2023-05-18T13:11:01.123Z,5.70
2023-05-18T13:12:07.929Z,5.28
2023-05-18T13:13:11.994Z,5.68
2023-05-18T13:14:14.762Z,5.38
2023-05-18T13:15:20.404Z,5.20
2023-05-18T13:16:23.213Z,5.22
2023-05-18T13:17:27.097Z,4.97
2023-05-18T13:18:32.334Z,5.07
2023-05-18T13:19:35.940Z,5.03
2023-05-18T13:20:42.899Z,5.18
2023-05-18T13:21:47.097Z,5.03
2023-05-18T13:22:50.820Z,5.50
2023-05-18T13:23:55.061Z,5.00
2023-05-18T13:24:57.656Z,5.50
2023-05-18T13:26:01.420Z,4.90
2023-05-18T13:27:05.343Z,5.30
2023-05-18T13:28:10.861Z,5.13
2023-05-18T13:29:14.611Z,6.53
2023-05-18T13:30:18.194Z,5.25
2023-05-18T13:31:22.634Z,5.30
2023-05-18T13:32:26.013Z,5.53
2023-05-18T13:33:29.790Z,5.35
2023-05-18T13:34:33.924Z,4.38
2023-05-18T13:35:37.743Z,4.85
2023-05-18T13:36:41.632Z,5.68
2023-05-18T13:37:45.535Z,5.20
2023-05-18T13:38:49.379Z,4.80
2023-05-18T13:39:52.072Z,4.80
2023-05-18T13:40:56.007Z,4.95
2023-05-18T13:42:00.233Z,4.80
2023-05-18T13:43:03.248Z,4.10
2023-05-18T13:44:07.371Z,4.22
2023-05-18T13:45:12.224Z,4.68
2023-05-18T13:46:17.125Z,4.82
2023-05-18T13:47:20.184Z,4.68
2023-05-18T13:48:24.825Z,4.55
2023-05-18T13:49:28.604Z,4.53
2023-05-18T13:50:34.478Z,4.60
2023-05-18T13:51:37.582Z,4.78
2023-05-18T13:52:41.411Z,4.60
2023-05-18T13:53:44.504Z,4.57
2023-05-18T13:54:49.017Z,3.88
2023-05-18T13:55:51.981Z,4.75
2023-05-18T13:56:55.957Z,4.40
2023-05-18T13:57:58.633Z,4.47
2023-05-18T13:59:02.636Z,4.45
2023-05-18T14:00:10.276Z,5.03
2023-05-18T14:01:18.180Z,5.10
2023-05-18T14:02:23.659Z,4.63
2023-05-18T14:03:27.721Z,4.22
2023-05-18T14:04:31.624Z,4.75
2023-05-18T14:05:36.576Z,4.45
2023-05-18T14:06:40.958Z,4.10
2023-05-18T14:07:44.193Z,5.75
2023-05-18T14:08:48.067Z,11.63
2023-05-18T14:09:51.157Z,4.50
2023-05-18T14:10:54.858Z,4.00
2023-05-18T14:11:58.359Z,4.15
2023-05-18T14:14:04.551Z,4.28
2023-05-18T14:15:09.574Z,4.63
2023-05-18T14:16:12.306Z,4.60
2023-05-18T14:17:16.340Z,9.35
2023-05-18T14:18:20.190Z,4.80
2023-05-18T14:19:22.890Z,5.20
2023-05-18T14:20:27.954Z,4.20
2023-05-18T14:21:32.211Z,4.40
2023-05-18T14:22:36.631Z,4.05
2023-05-18T14:23:39.442Z,5.20
2023-05-18T14:24:43.204Z,4.80
2023-05-18T14:25:47.063Z,4.75
2023-05-18T14:26:51.202Z,5.43
2023-05-18T14:27:54.904Z,4.05
2023-05-18T14:28:57.622Z,4.30
2023-05-18T14:30:01.554Z,4.43
2023-05-18T14:31:05.403Z,4.75
2023-05-18T14:32:08.656Z,4.78
2023-05-18T14:33:12.488Z,4.38
2023-05-18T14:34:15.177Z,4.93
2023-05-18T14:35:18.939Z,4.45
2023-05-18T14:36:22.313Z,5.50
2023-05-18T14:37:27.792Z,5.22
2023-05-18T14:38:31.582Z,5.10
2023-05-18T14:39:34.430Z,5.15
2023-05-18T14:40:38.222Z,5.07
2023-05-18T14:41:44.218Z,5.38
2023-05-18T14:42:48.085Z,4.53
2023-05-18T14:43:51.383Z,4.65
2023-05-18T14:44:55.129Z,4.47
2023-05-18T14:46:08.028Z,4.85
2023-05-18T14:47:12.929Z,5.10
2023-05-18T14:48:16.633Z,4.63